Time;durP1;ratioP1;P1;durP2;ratioP2;P2;SDS_P1;SDS_P2;PMS_P1;PMS_P2;Temp;Humidity;BMP_temperature;BMP_pressure;BME280_temperature;BME280_humidity;BME280_pressure;Samples;Min_cycle;Max_cycle;Signal;HPM_P1;HPM_P2
2021/01/17 00:02:24;;;;;;;23.73;10.70;;;;;;;;;;10171034;28;20082;-69
2021/01/17 00:07:22;;;;;;;31.97;12.23;;;;;;;;;;10168655;28;20033;-69
2021/01/17 00:12:19;;;;;;;22.10;12.30;;;;;;;;;;10185997;28;20490;-67
2021/01/17 00:17:16;;;;;;;26.90;12.13;;;;;;;;;;10160726;28;20102;-69
2021/01/17 00:22:14;;;;;;;27.23;11.00;;;;;;;;;;10158476;28;20090;-70
2021/01/17 00:27:12;;;;;;;25.03;12.67;;;;;;;;;;10173517;28;20101;-69
2021/01/17 00:32:10;;;;;;;14.48;7.82;;;;;;;;;;10181479;28;20023;-69
2021/01/17 00:37:07;;;;;;;18.52;7.40;;;;;;;;;;10170417;28;20018;-70
2021/01/17 00:42:08;;;;;;;25.43;11.97;;;;;;;;;;10165117;28;20034;-69
2021/01/17 00:47:05;;;;;;;28.17;11.93;;;;;;;;;;10190081;28;20047;-70
2021/01/17 00:52:03;;;;;;;20.17;10.57;;;;;;;;;;10176848;28;20027;-69
2021/01/17 00:57:04;;;;;;;20.73;10.18;;;;;;;;;;10162476;28;20038;-69
2021/01/17 01:02:02;;;;;;;22.38;10.95;;;;;;;;;;10163432;28;20035;-69
2021/01/17 01:07:00;;;;;;;24.35;11.77;;;;;;;;;;10164539;28;20521;-68
2021/01/17 01:11:57;;;;;;;26.50;13.70;;;;;;;;;;10172652;28;20081;-69
2021/01/17 01:16:55;;;;;;;16.43;9.60;;;;;;;;;;10189079;28;20042;-69
2021/01/17 01:21:52;;;;;;;30.13;12.87;;;;;;;;;;10164870;28;20027;-69
2021/01/17 01:26:50;;;;;;;19.40;11.70;;;;;;;;;;10174470;28;20494;-68
2021/01/17 01:31:47;;;;;;;37.87;14.43;;;;;;;;;;10162173;28;20107;-69
2021/01/17 01:36:44;;;;;;;29.70;14.13;;;;;;;;;;10170412;28;20039;-70
2021/01/17 01:41:42;;;;;;;27.90;13.90;;;;;;;;;;10174461;28;20042;-68
2021/01/17 01:46:40;;;;;;;30.23;15.03;;;;;;;;;;10169412;28;20657;-69
2021/01/17 01:51:38;;;;;;;36.90;13.80;;;;;;;;;;10159757;28;20035;-69
2021/01/17 01:56:35;;;;;;;31.27;14.88;;;;;;;;;;10180671;28;20049;-69
2021/01/17 02:01:33;;;;;;;31.63;14.30;;;;;;;;;;10164250;28;20042;-68
2021/01/17 02:06:30;;;;;;;31.53;14.93;;;;;;;;;;10172850;28;20038;-69
2021/01/17 02:11:28;;;;;;;35.67;14.83;;;;;;;;;;10174451;28;20031;-69
2021/01/17 02:16:26;;;;;;;29.23;14.17;;;;;;;;;;10168966;28;20039;-69
2021/01/17 02:21:24;;;;;;;29.35;13.13;;;;;;;;;;10165499;28;20524;-69
2021/01/17 02:26:22;;;;;;;30.23;14.30;;;;;;;;;;10157228;28;20279;-69
2021/01/17 02:31:20;;;;;;;29.60;12.23;;;;;;;;;;10158475;28;20031;-69
2021/01/17 02:36:23;;;;;;;24.90;11.98;;;;;;;;;;10165018;28;20122;-68
2021/01/17 02:41:25;;;;;;;24.15;11.93;;;;;;;;;;10158969;28;20035;-69
2021/01/17 02:46:22;;;;;;;26.10;13.43;;;;;;;;;;10153877;28;20038;-67
2021/01/17 02:51:20;;;;;;;28.70;12.93;;;;;;;;;;10167116;28;20470;-70
2021/01/17 02:56:18;;;;;;;18.23;9.27;;;;;;;;;;10166718;28;20129;-69
2021/01/17 03:01:23;;;;;;;17.10;8.75;;;;;;;;;;10167541;28;20035;-69
2021/01/17 03:06:23;;;;;;;19.35;9.60;;;;;;;;;;10159567;28;20034;-69
2021/01/17 03:11:20;;;;;;;18.83;9.18;;;;;;;;;;10164834;28;20031;-67
2021/01/17 03:16:18;;;;;;;20.00;9.40;;;;;;;;;;10155369;28;20085;-69
2021/01/17 03:21:15;;;;;;;26.23;11.60;;;;;;;;;;10152129;28;20121;-69
2021/01/17 03:26:12;;;;;;;17.23;8.57;;;;;;;;;;10150139;28;20407;-70
2021/01/17 03:31:10;;;;;;;22.27;10.03;;;;;;;;;;10167011;28;20031;-69
2021/01/17 03:36:07;;;;;;;21.57;11.47;;;;;;;;;;10142490;28;20034;-69
2021/01/17 03:41:05;;;;;;;22.73;11.07;;;;;;;;;;10166353;28;20035;-69
2021/01/17 03:46:02;;;;;;;25.90;11.43;;;;;;;;;;10153887;28;20380;-69
2021/01/17 03:51:00;;;;;;;28.67;14.20;;;;;;;;;;10154972;28;20536;-69
2021/01/17 03:55:57;;;;;;;28.47;13.87;;;;;;;;;;10155254;28;20039;-68
2021/01/17 04:00:54;;;;;;;22.97;11.33;;;;;;;;;;10167869;28;20030;-69
2021/01/17 04:05:52;;;;;;;26.33;11.97;;;;;;;;;;10175700;28;20545;-68
2021/01/17 04:10:49;;;;;;;23.47;11.60;;;;;;;;;;10166250;28;20053;-69
2021/01/17 04:15:47;;;;;;;29.60;13.60;;;;;;;;;;10168479;28;20042;-68
2021/01/17 04:20:44;;;;;;;25.83;12.87;;;;;;;;;;10167879;28;20031;-69
2021/01/17 04:25:41;;;;;;;26.07;12.47;;;;;;;;;;10188818;28;20138;-68
2021/01/17 04:30:39;;;;;;;25.23;13.40;;;;;;;;;;10179563;28;20031;-69
2021/01/17 04:35:36;;;;;;;23.03;11.37;;;;;;;;;;10154276;28;20397;-70
2021/01/17 04:40:34;;;;;;;25.67;13.27;;;;;;;;;;10173508;28;20046;-66
2021/01/17 04:45:32;;;;;;;31.30;14.30;;;;;;;;;;10169488;28;20523;-66
2021/01/17 04:50:30;;;;;;;25.33;12.90;;;;;;;;;;10169507;28;20145;-66
2021/01/17 04:55:28;;;;;;;29.55;13.48;;;;;;;;;;10176714;28;20027;-65
2021/01/17 05:00:29;;;;;;;31.47;11.43;;;;;;;;;;10170350;28;20037;-68
2021/01/17 05:05:32;;;;;;;29.92;13.27;;;;;;;;;;10186998;28;20027;-66
2021/01/17 05:10:38;;;;;;;27.98;12.73;;;;;;;;;;10172402;28;20554;-66
2021/01/17 05:15:37;;;;;;;27.05;12.27;;;;;;;;;;10165430;28;20113;-70
2021/01/17 05:20:34;;;;;;;28.80;14.88;;;;;;;;;;10169073;28;20604;-70
2021/01/17 05:25:32;;;;;;;28.52;14.63;;;;;;;;;;10173919;28;20471;-67
2021/01/17 05:30:29;;;;;;;30.33;15.63;;;;;;;;;;10171159;28;20034;-66
2021/01/17 05:35:27;;;;;;;29.23;11.73;;;;;;;;;;10176031;28;20118;-71
2021/01/17 05:40:24;;;;;;;29.93;14.70;;;;;;;;;;10171574;28;20489;-66
2021/01/17 05:45:23;;;;;;;27.87;12.10;;;;;;;;;;10173110;28;20042;-70
2021/01/17 05:50:21;;;;;;;26.42;12.65;;;;;;;;;;10175095;28;20046;-69
2021/01/17 05:55:18;;;;;;;36.60;15.65;;;;;;;;;;10165795;28;20046;-70
2021/01/17 06:00:16;;;;;;;24.03;11.57;;;;;;;;;;10166056;28;20401;-69
2021/01/17 06:05:20;;;;;;;27.10;13.50;;;;;;;;;;10159995;28;20042;-67
2021/01/17 06:10:22;;;;;;;27.92;14.18;;;;;;;;;;10170821;28;20023;-66
2021/01/17 06:15:20;;;;;;;28.17;13.57;;;;;;;;;;10172551;28;20076;-65
2021/01/17 06:20:19;;;;;;;32.60;14.40;;;;;;;;;;10170004;28;20038;-71
2021/01/17 06:25:16;;;;;;;24.70;12.65;;;;;;;;;;10165360;28;20030;-68
2021/01/17 06:30:18;;;;;;;24.93;10.20;;;;;;;;;;10169682;28;20058;-70
2021/01/17 06:35:28;;;;;;;22.20;9.55;;;;;;;;;;10161341;28;20042;-66
2021/01/17 06:40:32;;;;;;;21.75;11.13;;;;;;;;;;10183043;28;20039;-65
2021/01/17 06:45:37;;;;;;;20.50;10.75;;;;;;;;;;10175982;28;20034;-66
2021/01/17 06:50:34;;;;;;;22.52;10.48;;;;;;;;;;10187124;23;20054;-64
2021/01/17 06:55:32;;;;;;;22.70;12.40;;;;;;;;;;10166317;28;20110;-64
2021/01/17 07:00:32;;;;;;;23.47;11.03;;;;;;;;;;10166429;28;20039;-63
2021/01/17 07:05:43;;;;;;;25.08;13.00;;;;;;;;;;10160744;28;20074;-63
2021/01/17 07:10:41;;;;;;;23.60;11.32;;;;;;;;;;10147017;28;20424;-64
2021/01/17 07:15:40;;;;;;;23.73;9.95;;;;;;;;;;10151520;28;20149;-63
2021/01/17 07:20:38;;;;;;;18.27;9.18;;;;;;;;;;10155251;28;20043;-63
2021/01/17 07:25:37;;;;;;;22.20;10.02;;;;;;;;;;10163359;28;20027;-63
2021/01/17 07:30:53;;;;;;;20.77;8.90;;;;;;;;;;10165241;28;20501;-64
2021/01/17 07:35:51;;;;;;;23.73;9.00;;;;;;;;;;10173449;28;20122;-63
2021/01/17 07:40:52;;;;;;;19.65;9.48;;;;;;;;;;10167869;28;20122;-63
2021/01/17 07:45:50;;;;;;;21.45;9.63;;;;;;;;;;10168051;28;20149;-64
2021/01/17 07:50:49;;;;;;;18.00;8.43;;;;;;;;;;10170682;28;20426;-63
2021/01/17 07:55:48;;;;;;;18.90;9.50;;;;;;;;;;10160543;28;20101;-63
2021/01/17 08:00:45;;;;;;;20.00;9.02;;;;;;;;;;10168418;28;20035;-64
2021/01/17 08:05:51;;;;;;;21.27;9.97;;;;;;;;;;10175478;28;20039;-64
2021/01/17 08:10:48;;;;;;;20.30;9.98;;;;;;;;;;10174606;28;20125;-64
2021/01/17 08:15:46;;;;;;;22.13;10.20;;;;;;;;;;10178008;28;20110;-63
2021/01/17 08:20:43;;;;;;;21.17;10.23;;;;;;;;;;10156925;28;20039;-65
2021/01/17 08:25:55;;;;;;;19.43;9.10;;;;;;;;;;10155772;28;20505;-64
2021/01/17 08:30:52;;;;;;;19.92;9.00;;;;;;;;;;10176781;28;20531;-64
2021/01/17 08:35:50;;;;;;;15.47;8.77;;;;;;;;;;10177020;28;20035;-65
2021/01/17 08:40:48;;;;;;;21.83;9.30;;;;;;;;;;10153927;28;20042;-64
2021/01/17 08:45:45;;;;;;;;;;;;;;;;;;10156880;28;20138;-65
2021/01/17 08:50:56;;;;;;;15.80;8.35;;;;;;;;;;10168071;28;20045;-65
2021/01/17 08:55:57;;;;;;;20.42;9.05;;;;;;;;;;10158543;28;20063;-65
2021/01/17 09:00:55;;;;;;;23.08;10.90;;;;;;;;;;10161274;28;20031;-65
2021/01/17 09:05:57;;;;;;;23.65;9.82;;;;;;;;;;10144581;28;20039;-64
2021/01/17 09:10:55;;;;;;;17.02;8.05;;;;;;;;;;10152722;28;20031;-64
2021/01/17 09:16:08;;;;;;;17.08;9.13;;;;;;;;;;10148177;28;20043;-64
2021/01/17 09:21:06;;;;;;;17.75;8.85;;;;;;;;;;10160377;28;20034;-65
2021/01/17 09:26:04;;;;;;;15.25;7.25;;;;;;;;;;10171532;28;20481;-64
2021/01/17 09:31:01;;;;;;;18.67;8.90;;;;;;;;;;10162605;28;20501;-64
2021/01/17 09:35:59;;;;;;;18.80;9.80;;;;;;;;;;10166198;28;20409;-65
2021/01/17 09:40:56;;;;;;;15.97;8.47;;;;;;;;;;10155588;28;20038;-64
2021/01/17 09:45:56;;;;;;;14.77;6.83;;;;;;;;;;10159349;28;20134;-65
2021/01/17 09:50:54;;;;;;;19.30;9.25;;;;;;;;;;10180943;28;20046;-64
2021/01/17 09:55:51;;;;;;;19.60;8.83;;;;;;;;;;10115599;28;20031;-63
2021/01/17 10:00:51;;;;;;;17.20;9.10;;;;;;;;;;10163156;28;20046;-63
2021/01/17 10:05:52;;;;;;;18.80;7.97;;;;;;;;;;10172243;28;20043;-65
2021/01/17 10:10:49;;;;;;;20.10;9.02;;;;;;;;;;10173765;28;20400;-64
2021/01/17 10:15:48;;;;;;;15.80;7.33;;;;;;;;;;10159801;28;20150;-65
2021/01/17 10:20:51;;;;;;;17.10;8.75;;;;;;;;;;10152428;28;20046;-65
2021/01/17 10:25:49;;;;;;;16.48;8.63;;;;;;;;;;10148964;28;20074;-65
2021/01/17 10:30:47;;;;;;;22.13;8.50;;;;;;;;;;10159416;28;20047;-64
2021/01/17 10:35:46;;;;;;;18.13;8.23;;;;;;;;;;10154300;28;20129;-65
2021/01/17 10:40:44;;;;;;;18.50;7.60;;;;;;;;;;10162660;28;20046;-65
2021/01/17 10:45:44;;;;;;;30.23;10.00;;;;;;;;;;10152185;28;20057;-65
2021/01/17 10:50:48;;;;;;;18.70;8.52;;;;;;;;;;10162536;28;20039;-65
2021/01/17 10:55:49;;;;;;;28.00;9.13;;;;;;;;;;10166374;28;20049;-64
2021/01/17 11:00:53;;;;;;;22.02;10.95;;;;;;;;;;10167967;28;20408;-65
2021/01/17 11:05:50;;;;;;;22.67;8.32;;;;;;;;;;10153167;28;20363;-65
2021/01/17 11:10:55;;;;;;;16.13;8.07;;;;;;;;;;10162723;28;20122;-65
2021/01/17 11:15:53;;;;;;;17.25;8.07;;;;;;;;;;10160546;28;20042;-64
2021/01/17 11:21:00;;;;;;;20.80;9.40;;;;;;;;;;10166427;28;20509;-66
2021/01/17 11:26:06;;;;;;;15.90;8.20;;;;;;;;;;10177440;28;20457;-65
2021/01/17 11:31:13;;;;;;;19.70;7.13;;;;;;;;;;10168363;28;20946;-65
2021/01/17 11:36:14;;;;;;;18.02;8.30;;;;;;;;;;10167541;28;20038;-65
2021/01/17 11:41:13;;;;;;;17.90;8.85;;;;;;;;;;10162150;28;20417;-65
2021/01/17 11:46:10;;;;;;;;;;;;;;;;;;10163879;28;20508;-65
2021/01/17 11:51:08;;;;;;;17.48;9.55;;;;;;;;;;10171189;28;20297;-65
2021/01/17 11:56:06;;;;;;;;;;;;;;;;;;10167033;28;20138;-64
2021/01/17 12:01:03;;;;;;;13.90;6.18;;;;;;;;;;10151184;28;20449;-65
2021/01/17 12:06:06;;;;;;;14.83;7.80;;;;;;;;;;10147579;28;20034;-64
2021/01/17 12:11:04;;;;;;;16.98;8.48;;;;;;;;;;10165746;28;20532;-65
2021/01/17 12:16:05;;;;;;;16.87;7.67;;;;;;;;;;10170845;28;20434;-65
2021/01/17 12:21:02;;;;;;;17.90;7.63;;;;;;;;;;10142774;28;20039;-65
2021/01/17 12:26:00;;;;;;;15.73;8.83;;;;;;;;;;10170361;28;20042;-65
2021/01/17 12:30:57;;;;;;;12.37;6.37;;;;;;;;;;10171453;28;20502;-64
2021/01/17 12:35:54;;;;;;;15.20;7.67;;;;;;;;;;10141228;28;20046;-65
2021/01/17 12:40:52;;;;;;;20.27;9.13;;;;;;;;;;10159306;28;20039;-64
2021/01/17 12:45:49;;;;;;;16.33;8.63;;;;;;;;;;10148146;28;20039;-65
2021/01/17 12:50:47;;;;;;;19.67;9.30;;;;;;;;;;10165797;28;20034;-64
2021/01/17 12:55:46;;;;;;;17.00;7.90;;;;;;;;;;10145315;28;20049;-65
2021/01/17 13:00:43;;;;;;;17.20;8.65;;;;;;;;;;10180178;28;20073;-65
2021/01/17 13:05:41;;;;;;;17.40;8.60;;;;;;;;;;10160352;28;20074;-66
2021/01/17 13:10:38;;;;;;;14.93;7.53;;;;;;;;;;10178255;28;20043;-65
2021/01/17 13:15:37;;;;;;;16.50;8.43;;;;;;;;;;10163119;28;20413;-65
2021/01/17 13:20:34;;;;;;;;;;;;;;;;;;10160742;28;20046;-65
2021/01/17 13:25:32;;;;;;;13.60;6.90;;;;;;;;;;10163581;28;19928;-65
2021/01/17 13:30:29;;;;;;;22.47;8.40;;;;;;;;;;10161043;28;20285;-65
2021/01/17 13:35:27;;;;;;;22.13;9.37;;;;;;;;;;10168216;28;20090;-65
2021/01/17 13:40:24;;;;;;;16.30;8.67;;;;;;;;;;10152287;28;20030;-63
2021/01/17 13:45:22;;;;;;;18.00;8.57;;;;;;;;;;10132987;28;20882;-63
2021/01/17 13:50:19;;;;;;;16.37;7.30;;;;;;;;;;10136095;28;20049;-64
2021/01/17 13:55:17;;;;;;;21.30;9.10;;;;;;;;;;10154767;28;20409;-63
2021/01/17 14:00:16;;;;;;;24.42;9.82;;;;;;;;;;10126133;28;20378;-66
2021/01/17 14:05:14;;;;;;;23.30;9.95;;;;;;;;;;10160874;28;20062;-65
2021/01/17 14:10:11;;;;;;;15.30;7.80;;;;;;;;;;10140572;28;20468;-64
2021/01/17 14:15:09;;;;;;;22.63;9.63;;;;;;;;;;10167782;28;20125;-65
2021/01/17 14:20:08;;;;;;;22.23;10.98;;;;;;;;;;10154499;28;20589;-65
2021/01/17 14:25:06;;;;;;;22.98;10.20;;;;;;;;;;10171782;28;20034;-64
2021/01/17 14:30:04;;;;;;;24.95;10.18;;;;;;;;;;10157649;28;20030;-65
2021/01/17 14:35:01;;;;;;;29.27;10.95;;;;;;;;;;10171707;28;20065;-66
2021/01/17 14:39:59;;;;;;;14.37;8.07;;;;;;;;;;10161224;28;20039;-65
2021/01/17 14:44:56;;;;;;;13.10;7.10;;;;;;;;;;10154536;28;20034;-65
2021/01/17 14:49:54;;;;;;;21.90;9.47;;;;;;;;;;10143076;28;20045;-64
2021/01/17 14:54:51;;;;;;;12.50;8.07;;;;;;;;;;10157296;28;20170;-64
2021/01/17 14:59:48;;;;;;;26.80;10.53;;;;;;;;;;10136171;28;20042;-65
2021/01/17 15:04:46;;;;;;;22.53;10.50;;;;;;;;;;10164016;28;20042;-65
2021/01/17 15:09:43;;;;;;;23.70;10.87;;;;;;;;;;10167383;28;20047;-63
2021/01/17 15:14:41;;;;;;;24.60;11.03;;;;;;;;;;10166122;28;20046;-66
2021/01/17 15:19:38;;;;;;;26.07;11.07;;;;;;;;;;10163999;28;20560;-65
2021/01/17 15:24:35;;;;;;;26.60;11.30;;;;;;;;;;10148904;28;20031;-64
2021/01/17 15:29:33;;;;;;;18.00;9.87;;;;;;;;;;10167701;28;20039;-66
2021/01/17 15:34:30;;;;;;;20.40;9.90;;;;;;;;;;10166551;28;20489;-65
2021/01/17 15:39:27;;;;;;;23.93;9.77;;;;;;;;;;10165222;28;20034;-65
2021/01/17 15:44:25;;;;;;;22.57;9.53;;;;;;;;;;10165770;28;20134;-65
2021/01/17 15:49:22;;;;;;;20.90;8.83;;;;;;;;;;10148494;28;20122;-63
2021/01/17 15:54:20;;;;;;;25.67;10.67;;;;;;;;;;10153782;28;20035;-65
2021/01/17 15:59:17;;;;;;;19.27;9.70;;;;;;;;;;10173136;28;20066;-64
2021/01/17 16:04:14;;;;;;;33.50;13.70;;;;;;;;;;10164079;28;20125;-65
2021/01/17 16:09:12;;;;;;;18.50;9.17;;;;;;;;;;10168683;28;20042;-65
2021/01/17 16:14:09;;;;;;;34.80;17.60;;;;;;;;;;10166760;28;20549;-65
2021/01/17 16:19:07;;;;;;;38.70;17.93;;;;;;;;;;10164380;28;20051;-64
2021/01/17 16:24:04;;;;;;;40.17;18.50;;;;;;;;;;10173125;28;20762;-65
2021/01/17 16:29:02;;;;;;;39.73;19.23;;;;;;;;;;10175604;28;20126;-63
2021/01/17 16:33:59;;;;;;;35.13;18.07;;;;;;;;;;10175982;28;20042;-64
2021/01/17 16:38:56;;;;;;;44.73;20.40;;;;;;;;;;10176397;28;20427;-65
2021/01/17 16:43:54;;;;;;;41.70;22.20;;;;;;;;;;10154363;28;20035;-65
2021/01/17 16:48:51;;;;;;;41.87;21.10;;;;;;;;;;10159406;28;20027;-64
2021/01/17 16:53:48;;;;;;;44.13;22.27;;;;;;;;;;10157845;28;20665;-65
2021/01/17 16:58:46;;;;;;;44.03;22.80;;;;;;;;;;10167635;28;20044;-65
2021/01/17 17:03:43;;;;;;;43.33;23.63;;;;;;;;;;10162184;28;20039;-65
2021/01/17 17:08:41;;;;;;;43.27;23.60;;;;;;;;;;10167833;28;20031;-65
2021/01/17 17:13:38;;;;;;;34.23;15.97;;;;;;;;;;10171350;28;20066;-66
2021/01/17 17:18:36;;;;;;;40.90;19.30;;;;;;;;;;10159279;28;20033;-65
2021/01/17 17:23:33;;;;;;;37.77;14.47;;;;;;;;;;10153586;28;20509;-66
2021/01/17 17:28:30;;;;;;;27.80;13.97;;;;;;;;;;10164718;28;20035;-65
2021/01/17 17:33:28;;;;;;;27.73;13.47;;;;;;;;;;10166119;28;20038;-65
2021/01/17 17:38:25;;;;;;;37.27;16.70;;;;;;;;;;10163928;28;20030;-64
2021/01/17 17:43:22;;;;;;;41.23;13.20;;;;;;;;;;10156395;28;20694;-64
2021/01/17 17:48:20;;;;;;;29.67;13.40;;;;;;;;;;10162613;28;20088;-64
2021/01/17 17:53:18;;;;;;;31.77;12.90;;;;;;;;;;10158123;28;20054;-65
2021/01/17 17:58:15;;;;;;;27.48;13.75;;;;;;;;;;10160188;28;20506;-65
2021/01/17 18:03:13;;;;;;;42.03;16.52;;;;;;;;;;10161986;28;20129;-66
2021/01/17 18:08:10;;;;;;;25.03;11.97;;;;;;;;;;10173098;28;20505;-66
2021/01/17 18:13:08;;;;;;;34.50;13.53;;;;;;;;;;10170784;28;20038;-66
2021/01/17 18:18:05;;;;;;;38.03;16.67;;;;;;;;;;10156735;28;20031;-65
2021/01/17 18:23:03;;;;;;;39.57;15.00;;;;;;;;;;10147129;28;20031;-64
2021/01/17 18:28:00;;;;;;;44.17;19.00;;;;;;;;;;10152254;28;20047;-65
2021/01/17 18:32:58;;;;;;;43.60;15.90;;;;;;;;;;10156664;28;20031;-65
2021/01/17 18:37:55;;;;;;;40.87;16.30;;;;;;;;;;10142297;28;20125;-65
2021/01/17 18:42:56;;;;;;;23.30;11.23;;;;;;;;;;10153691;28;20050;-65
2021/01/17 18:48:04;;;;;;;43.90;19.17;;;;;;;;;;10111385;28;20071;-65
2021/01/17 18:53:01;;;;;;;39.42;15.48;;;;;;;;;;10157071;23;20512;-67
2021/01/17 18:57:59;;;;;;;25.53;11.20;;;;;;;;;;10186492;28;20416;-67
2021/01/17 19:02:57;;;;;;;45.42;17.42;;;;;;;;;;10197740;28;20073;-68
2021/01/17 19:07:55;;;;;;;43.13;15.40;;;;;;;;;;10196267;28;20315;-66
2021/01/17 19:12:53;;;;;;;42.83;18.50;;;;;;;;;;10193050;28;20278;-68
2021/01/17 19:17:51;;;;;;;33.90;15.37;;;;;;;;;;10177979;28;20031;-67
2021/01/17 19:22:49;;;;;;;45.95;18.77;;;;;;;;;;10199943;28;20293;-67
2021/01/17 19:27:47;;;;;;;39.97;15.93;;;;;;;;;;10204029;28;20096;-66
2021/01/17 19:32:45;;;;;;;43.88;18.13;;;;;;;;;;10203117;28;20869;-67
2021/01/17 19:37:43;;;;;;;55.37;21.23;;;;;;;;;;10209405;28;20125;-67
2021/01/17 19:42:40;;;;;;;71.87;30.07;;;;;;;;;;10208408;28;20038;-66
2021/01/17 19:47:38;;;;;;;49.03;19.43;;;;;;;;;;10208223;28;20293;-67
2021/01/17 19:52:35;;;;;;;48.50;19.03;;;;;;;;;;10197709;28;20576;-64
2021/01/17 19:57:33;;;;;;;47.33;18.20;;;;;;;;;;10212642;28;20070;-65
2021/01/17 20:02:30;;;;;;;45.30;18.87;;;;;;;;;;10216533;28;20405;-65
2021/01/17 20:07:27;;;;;;;47.73;18.53;;;;;;;;;;10184058;28;20046;-64
2021/01/17 20:12:25;;;;;;;61.25;24.48;;;;;;;;;;10202527;28;20031;-65
2021/01/17 20:17:23;;;;;;;46.77;18.60;;;;;;;;;;10206331;28;20034;-63
2021/01/17 20:22:20;;;;;;;48.40;19.00;;;;;;;;;;10189972;28;20382;-66
2021/01/17 20:27:18;;;;;;;40.60;17.90;;;;;;;;;;10202650;28;20041;-66
2021/01/17 20:32:15;;;;;;;50.63;18.07;;;;;;;;;;10210375;28;20488;-66
2021/01/17 20:37:13;;;;;;;40.27;15.10;;;;;;;;;;10213269;28;20030;-67
2021/01/17 20:42:11;;;;;;;42.67;18.23;;;;;;;;;;10186644;28;20030;-66
2021/01/17 20:47:08;;;;;;;56.83;19.50;;;;;;;;;;10205083;28;20134;-67
2021/01/17 20:52:06;;;;;;;41.77;15.30;;;;;;;;;;10207305;28;20042;-65
2021/01/17 20:57:04;;;;;;;48.63;17.50;;;;;;;;;;10192045;28;20035;-65
2021/01/17 21:02:02;;;;;;;47.15;18.67;;;;;;;;;;10231021;28;20031;-66
2021/01/17 21:07:00;;;;;;;45.42;16.23;;;;;;;;;;10201834;28;20045;-65
2021/01/17 21:11:57;;;;;;;40.30;15.33;;;;;;;;;;10182151;28;20389;-66
2021/01/17 21:16:54;;;;;;;42.60;16.83;;;;;;;;;;10194845;28;20062;-65
2021/01/17 21:21:52;;;;;;;39.30;16.07;;;;;;;;;;10192372;28;20493;-66
2021/01/17 21:26:50;;;;;;;34.10;13.27;;;;;;;;;;10195739;28;20121;-64
2021/01/17 21:31:53;;;;;;;52.45;19.80;;;;;;;;;;10202849;28;20126;-64
2021/01/17 21:36:50;;;;;;;34.75;13.98;;;;;;;;;;10193999;28;20065;-66
2021/01/17 21:41:47;;;;;;;45.77;17.77;;;;;;;;;;10193823;28;20726;-66
2021/01/17 21:46:45;;;;;;;34.43;14.30;;;;;;;;;;10191202;28;20393;-67
2021/01/17 21:51:42;;;;;;;48.33;18.10;;;;;;;;;;10204217;28;20501;-67
2021/01/17 21:56:40;;;;;;;41.97;16.03;;;;;;;;;;10202701;28;20042;-66
2021/01/17 22:01:38;;;;;;;29.73;15.07;;;;;;;;;;10189311;28;20030;-67
2021/01/17 22:06:35;;;;;;;;;;;;;;;;;;10198438;28;20100;-66
2021/01/17 22:11:33;;;;;;;38.20;13.90;;;;;;;;;;10164725;28;20356;-67
2021/01/17 22:16:30;;;;;;;20.27;6.07;;;;;;;;;;10200909;28;20045;-65
2021/01/17 22:21:33;;;;;;;44.00;15.83;;;;;;;;;;10185797;28;20058;-65
2021/01/17 22:26:30;;;;;;;38.45;15.45;;;;;;;;;;10197486;28;20054;-67
2021/01/17 22:31:28;;;;;;;16.30;9.77;;;;;;;;;;10209553;28;20029;-67
2021/01/17 22:36:25;;;;;;;33.43;14.13;;;;;;;;;;10201021;28;20148;-67
2021/01/17 22:41:22;;;;;;;15.63;8.20;;;;;;;;;;10193004;28;20445;-65
2021/01/17 22:46:20;;;;;;;24.27;11.00;;;;;;;;;;10210910;28;20048;-67
2021/01/17 22:51:20;;;;;;;46.83;14.87;;;;;;;;;;10200946;28;20057;-67
2021/01/17 22:56:21;;;;;;;38.95;15.98;;;;;;;;;;10207969;28;20412;-67
2021/01/17 23:01:19;;;;;;;39.78;15.52;;;;;;;;;;10208097;28;20034;-67
2021/01/17 23:06:18;;;;;;;41.30;12.97;;;;;;;;;;10204065;28;20052;-67
2021/01/17 23:11:19;;;;;;;37.60;15.68;;;;;;;;;;10207793;28;20277;-65
2021/01/17 23:16:16;;;;;;;21.02;8.38;;;;;;;;;;10218855;28;20513;-64
2021/01/17 23:21:14;;;;;;;9.50;5.23;;;;;;;;;;10214779;28;20057;-64
2021/01/17 23:26:12;;;;;;;39.80;14.80;;;;;;;;;;10215075;28;20042;-65
2021/01/17 23:31:10;;;;;;;21.80;8.73;;;;;;;;;;10211285;28;20039;-65
2021/01/17 23:36:07;;;;;;;;;;;;;;;;;;10223922;28;20038;-66
2021/01/17 23:41:05;;;;;;;38.88;15.48;;;;;;;;;;10208737;28;20388;-65
2021/01/17 23:46:02;;;;;;;52.30;18.80;;;;;;;;;;10206389;28;20117;-65
2021/01/17 23:50:59;;;;;;;37.43;14.33;;;;;;;;;;10197653;28;20034;-64
2021/01/17 23:55:57;;;;;;;43.77;16.60;;;;;;;;;;10216929;28;20045;-65
